Union Trader — SVAX6 — position and weather

sailwx.info

Track history (hours):
 
Tides and Currents Weather Stations Pressure Air Temp Water Temp Dewpoint Dewpoint Depression Visibility Wind Speed Wind Dir Waves Ship Positions

Union Trader

Last reported at 2016-Aug-21 15:20 UTC. Time now 2016-Aug-25 21:59 UTC.
Position N 38°00' W 128°32'.

Length 190 m; draft 13.3 m.

Type: Cargo ship. MMSI: 240982000.

Date/timePositionNaut miles runAvg speedWind from/ knotsBaromVisibWave heightAir tempDewpointWater temp
2016-Aug-21 15:20N 38°00' W 128°32'7711.3
2016-Aug-21 08:32N 37°43' W 126°57'2311.0
2016-Aug-21 06:25N 37°41' W 126°28'2211.3
2016-Aug-21 04:31N 37°39' W 126°01'1411.5
2016-Aug-21 03:16N 37°37' W 125°43'811.6
2016-Aug-21 02:33N 37°36' W 125°32'1211.7
2016-Aug-21 01:31N 37°36' W 125°17'1111.6
2016-Aug-21 00:34N 37°35' W 125°03'1212.1
2016-Aug-20 23:33N 37°34' W 124°48'1211.9
2016-Aug-20 22:33N 37°33' W 124°33'1211.8
2016-Aug-20 21:33N 37°32' W 124°18'1212.1
2016-Aug-20 20:33N 37°31' W 124°03'1212.3
2016-Aug-20 19:33N 37°30' W 123°47'1212.4
2016-Aug-20 18:33N 37°29' W 123°32'1212.5
2016-Aug-20 17:34N 37°28' W 123°16'1211.7
2016-Aug-20 16:33N 37°30' W 123°02'1010.1
2016-Aug-20 15:33N 37°37' W 122°52'8 7.9
2016-Aug-20 14:33N 37°33' W 123°01'1010.1
2016-Aug-20 13:33N 37°32' W 123°14'1212.3
2016-Aug-20 12:33N 37°33' W 123°29'9 8.7
2016-Aug-20 11:33N 37°33' W 123°40'4 4.3
2016-Aug-20 10:33N 37°33' W 123°35'1312.5
2016-Aug-20 09:33N 37°33' W 123°50'1212.5
2016-Aug-20 08:33N 37°34' W 124°06'1212.4
2016-Aug-20 07:33N 37°35' W 124°22'1212.3
2016-Aug-20 06:33N 37°36' W 124°37'1212.1
2016-Aug-20 05:33N 37°36' W 124°53'1212.4
2016-Aug-20 04:33N 37°37' W 125°08'1212.3
2016-Aug-20 03:33N 37°37' W 125°24'1212.5
2016-Aug-20 02:34N 37°38' W 125°39'1312.7
2016-Aug-20 01:33N 37°39' W 125°55'1413.2
2016-Aug-20 00:29N 37°40' W 126°13'1213.3
2016-Aug-19 23:33N 37°40' W 126°29'1313.0
2016-Aug-19 22:33N 37°41' W 126°45'1312.5
2016-Aug-19 21:33N 37°42' W 127°01'5410.6
2016-Aug-19 16:28N 37°38' W 128°09'6310.4
2016-Aug-19 10:23N 37°49' W 129°28'910.7
2016-Aug-19 09:32N 37°49' W 129°39'15010.4
2016-Aug-18 19:03N 37°58' W 132°50'2710.9
2016-Aug-18 16:33N 37°60' W 133°24'1411.0
2016-Aug-18 15:18N 38°00' W 133°42'811.3
2016-Aug-18 14:33N 38°01' W 133°52'1211.4
2016-Aug-18 13:28N 38°01' W 134°08'1411.3
2016-Aug-18 12:13N 38°02' W 134°26'811.3
2016-Aug-18 11:33N 38°03' W 134°36'1211.6
2016-Aug-18 10:33N 38°03' W 134°50'3511.7
2016-Aug-18 07:34N 38°07' W 135°34'  
2016-Aug-15 17:23N 31°28' W 123°56'1011.8
2016-Aug-15 16:30N 31°22' W 123°46'1111.8
2016-Aug-15 15:34N 31°16' W 123°35'1212.1
2016-Aug-15 14:32N 31°08' W 123°24'1612.1
2016-Aug-15 13:14N 30°59' W 123°09'812.0
2016-Aug-15 12:33N 30°54' W 123°01'1212.1
2016-Aug-15 11:33N 30°47' W 122°50'1312.1
2016-Aug-15 10:27N 30°39' W 122°38'1111.9
2016-Aug-15 09:33N 30°33' W 122°28'1811.9
2016-Aug-15 08:04N 30°22' W 122°11'811.8
2016-Aug-15 07:21N 30°17' W 122°04'910.7
2016-Aug-15 06:33N 30°16' W 121°54'2512.4
2016-Aug-15 04:33N 30°22' W 121°26'2612.5
2016-Aug-15 02:27N 30°29' W 120°57'1112.6
2016-Aug-15 01:32N 30°31' W 120°44'1312.7
2016-Aug-15 00:32N 30°34' W 120°29'1212.2
2016-Aug-14 23:31N 30°37' W 120°15'1212.4
2016-Aug-14 22:33N 30°40' W 120°02'1312.7
2016-Aug-14 21:33N 30°43' W 119°47'1212.5
2016-Aug-14 20:33N 30°46' W 119°33'1312.4
2016-Aug-14 19:33N 30°49' W 119°19'1212.3
2016-Aug-14 18:33N 30°52' W 119°05'1212.2
2016-Aug-14 17:33N 30°55' W 118°52'1212.3
2016-Aug-14 16:33N 30°58' W 118°38'1111.3
2016-Aug-14 15:33N 31°06' W 118°28'1312.5
2016-Aug-14 14:33N 31°17' W 118°22'1212.4
2016-Aug-14 13:33N 31°29' W 118°16'1212.3
2016-Aug-14 12:33N 31°40' W 118°10'1212.4
2016-Aug-14 11:33N 31°51' W 118°05'1312.5
2016-Aug-14 10:34N 32°03' W 117°59'1312.5
2016-Aug-14 09:33N 32°14' W 117°53'1212.4
2016-Aug-14 08:33N 32°26' W 117°47'1211.7
2016-Aug-14 07:33N 32°37' W 117°48'1212.3
2016-Aug-14 06:34N 32°49' W 117°54'2512.7
2016-Aug-14 04:33N 33°13' W 118°04'1212.4
2016-Aug-14 03:33N 33°24' W 118°09'1211.6
2016-Aug-14 02:33N 33°35' W 118°13'8 8.3
2016-Aug-14 01:33N 33°43' W 118°11'1 0.5
2016-Aug-14 00:33N 33°44' W 118°10'0 0.0
2016-Aug-13 23:33N 33°44' W 118°10'0 0.0
2016-Aug-13 22:33N 33°44' W 118°10'0 0.0
2016-Aug-13 21:33N 33°44' W 118°10'0 0.0
2016-Aug-13 20:33N 33°44' W 118°10'0 0.1
2016-Aug-13 19:33N 33°44' W 118°10'0 0.0
2016-Aug-13 18:33N 33°44' W 118°10'0 0.0
2016-Aug-13 17:30N 33°44' W 118°10'0 0.0
2016-Aug-13 16:33N 33°44' W 118°10'0 0.0
2016-Aug-13 15:33N 33°44' W 118°10'0 0.0
2016-Aug-13 14:27N 33°44' W 118°10'0 0.3
2016-Aug-13 13:33N 33°43' W 118°11'4 3.9
2016-Aug-13 12:33N 33°40' W 118°10'9 8.6
2016-Aug-13 11:34N 33°31' W 118°08'1211.9
2016-Aug-13 10:33N 33°20' W 118°03'1212.4
2016-Aug-13 09:33N 33°08' W 117°58'1212.3
2016-Aug-13 08:33N 32°57' W 117°54'1212.5
2016-Aug-13 07:33N 32°45' W 117°48'1111.5
2016-Aug-13 06:34N 32°34' W 117°44'1312.6
2016-Aug-13 05:33N 32°22' W 117°39'1312.6
2016-Aug-13 04:33N 32°10' W 117°34'1312.6
2016-Aug-13 03:33N 31°59' W 117°29'1212.4
2016-Aug-13 02:33N 31°47' W 117°24'1512.0
2016-Aug-13 01:20N 31°33' W 117°18'3712.3
2016-Aug-12 22:19N 30°58' W 117°04'  
Track history (hours):
 
Tides and Currents Weather Stations Pressure Air Temp Water Temp Dewpoint Dewpoint Depression Visibility Wind Speed Wind Dir Waves Ship Positions

Union Trader

Last reported at 2016-Aug-21 15:20 UTC. Time now 2016-Aug-25 21:59 UTC.
Position N 38°00' W 128°32'.

Length 190 m; draft 13.3 m.

Type: Cargo ship. MMSI: 240982000.

Date/timePositionNaut miles runAvg speedWind from/ knotsBaromVisibWave heightAir tempDewpointWater temp
2016-Aug-21 15:20N 38°00' W 128°32'7711.3
2016-Aug-21 08:32N 37°43' W 126°57'2311.0
2016-Aug-21 06:25N 37°41' W 126°28'2211.3
2016-Aug-21 04:31N 37°39' W 126°01'1411.5
2016-Aug-21 03:16N 37°37' W 125°43'811.6
2016-Aug-21 02:33N 37°36' W 125°32'1211.7
2016-Aug-21 01:31N 37°36' W 125°17'1111.6
2016-Aug-21 00:34N 37°35' W 125°03'1212.1
2016-Aug-20 23:33N 37°34' W 124°48'1211.9
2016-Aug-20 22:33N 37°33' W 124°33'1211.8
2016-Aug-20 21:33N 37°32' W 124°18'1212.1
2016-Aug-20 20:33N 37°31' W 124°03'1212.3
2016-Aug-20 19:33N 37°30' W 123°47'1212.4
2016-Aug-20 18:33N 37°29' W 123°32'1212.5
2016-Aug-20 17:34N 37°28' W 123°16'1211.7
2016-Aug-20 16:33N 37°30' W 123°02'1010.1
2016-Aug-20 15:33N 37°37' W 122°52'8 7.9
2016-Aug-20 14:33N 37°33' W 123°01'1010.1
2016-Aug-20 13:33N 37°32' W 123°14'1212.3
2016-Aug-20 12:33N 37°33' W 123°29'9 8.7
2016-Aug-20 11:33N 37°33' W 123°40'4 4.3
2016-Aug-20 10:33N 37°33' W 123°35'1312.5
2016-Aug-20 09:33N 37°33' W 123°50'1212.5
2016-Aug-20 08:33N 37°34' W 124°06'1212.4
2016-Aug-20 07:33N 37°35' W 124°22'1212.3
2016-Aug-20 06:33N 37°36' W 124°37'1212.1
2016-Aug-20 05:33N 37°36' W 124°53'1212.4
2016-Aug-20 04:33N 37°37' W 125°08'1212.3
2016-Aug-20 03:33N 37°37' W 125°24'1212.5
2016-Aug-20 02:34N 37°38' W 125°39'1312.7
2016-Aug-20 01:33N 37°39' W 125°55'1413.2
2016-Aug-20 00:29N 37°40' W 126°13'1213.3
2016-Aug-19 23:33N 37°40' W 126°29'1313.0
2016-Aug-19 22:33N 37°41' W 126°45'1312.5
2016-Aug-19 21:33N 37°42' W 127°01'5410.6
2016-Aug-19 16:28N 37°38' W 128°09'6310.4
2016-Aug-19 10:23N 37°49' W 129°28'910.7
2016-Aug-19 09:32N 37°49' W 129°39'15010.4
2016-Aug-18 19:03N 37°58' W 132°50'2710.9
2016-Aug-18 16:33N 37°60' W 133°24'1411.0
2016-Aug-18 15:18N 38°00' W 133°42'811.3
2016-Aug-18 14:33N 38°01' W 133°52'1211.4
2016-Aug-18 13:28N 38°01' W 134°08'1411.3
2016-Aug-18 12:13N 38°02' W 134°26'811.3
2016-Aug-18 11:33N 38°03' W 134°36'1211.6
2016-Aug-18 10:33N 38°03' W 134°50'3511.7
2016-Aug-18 07:34N 38°07' W 135°34'  
2016-Aug-15 17:23N 31°28' W 123°56'1011.8
2016-Aug-15 16:30N 31°22' W 123°46'1111.8
2016-Aug-15 15:34N 31°16' W 123°35'1212.1
2016-Aug-15 14:32N 31°08' W 123°24'1612.1
2016-Aug-15 13:14N 30°59' W 123°09'812.0
2016-Aug-15 12:33N 30°54' W 123°01'1212.1
2016-Aug-15 11:33N 30°47' W 122°50'1312.1
2016-Aug-15 10:27N 30°39' W 122°38'1111.9
2016-Aug-15 09:33N 30°33' W 122°28'1811.9
2016-Aug-15 08:04N 30°22' W 122°11'811.8
2016-Aug-15 07:21N 30°17' W 122°04'910.7
2016-Aug-15 06:33N 30°16' W 121°54'2512.4
2016-Aug-15 04:33N 30°22' W 121°26'2612.5
2016-Aug-15 02:27N 30°29' W 120°57'1112.6
2016-Aug-15 01:32N 30°31' W 120°44'1312.7
2016-Aug-15 00:32N 30°34' W 120°29'1212.2
2016-Aug-14 23:31N 30°37' W 120°15'1212.4
2016-Aug-14 22:33N 30°40' W 120°02'1312.7
2016-Aug-14 21:33N 30°43' W 119°47'1212.5
2016-Aug-14 20:33N 30°46' W 119°33'1312.4
2016-Aug-14 19:33N 30°49' W 119°19'1212.3
2016-Aug-14 18:33N 30°52' W 119°05'1212.2
2016-Aug-14 17:33N 30°55' W 118°52'1212.3
2016-Aug-14 16:33N 30°58' W 118°38'1111.3
2016-Aug-14 15:33N 31°06' W 118°28'1312.5
2016-Aug-14 14:33N 31°17' W 118°22'1212.4
2016-Aug-14 13:33N 31°29' W 118°16'1212.3
2016-Aug-14 12:33N 31°40' W 118°10'1212.4
2016-Aug-14 11:33N 31°51' W 118°05'1312.5
2016-Aug-14 10:34N 32°03' W 117°59'1312.5
2016-Aug-14 09:33N 32°14' W 117°53'1212.4
2016-Aug-14 08:33N 32°26' W 117°47'1211.7
2016-Aug-14 07:33N 32°37' W 117°48'1212.3
2016-Aug-14 06:34N 32°49' W 117°54'2512.7
2016-Aug-14 04:33N 33°13' W 118°04'1212.4
2016-Aug-14 03:33N 33°24' W 118°09'1211.6
2016-Aug-14 02:33N 33°35' W 118°13'8 8.3
2016-Aug-14 01:33N 33°43' W 118°11'1 0.5
2016-Aug-14 00:33N 33°44' W 118°10'0 0.0
2016-Aug-13 23:33N 33°44' W 118°10'0 0.0
2016-Aug-13 22:33N 33°44' W 118°10'0 0.0
2016-Aug-13 21:33N 33°44' W 118°10'0 0.0
2016-Aug-13 20:33N 33°44' W 118°10'0 0.1
2016-Aug-13 19:33N 33°44' W 118°10'0 0.0
2016-Aug-13 18:33N 33°44' W 118°10'0 0.0
2016-Aug-13 17:30N 33°44' W 118°10'0 0.0
2016-Aug-13 16:33N 33°44' W 118°10'0 0.0
2016-Aug-13 15:33N 33°44' W 118°10'0 0.0
2016-Aug-13 14:27N 33°44' W 118°10'0 0.3
2016-Aug-13 13:33N 33°43' W 118°11'4 3.9
2016-Aug-13 12:33N 33°40' W 118°10'9 8.6
2016-Aug-13 11:34N 33°31' W 118°08'1211.9
2016-Aug-13 10:33N 33°20' W 118°03'1212.4
2016-Aug-13 09:33N 33°08' W 117°58'1212.3
2016-Aug-13 08:33N 32°57' W 117°54'1212.5
2016-Aug-13 07:33N 32°45' W 117°48'1111.5
2016-Aug-13 06:34N 32°34' W 117°44'1312.6
2016-Aug-13 05:33N 32°22' W 117°39'1312.6
2016-Aug-13 04:33N 32°10' W 117°34'1312.6
2016-Aug-13 03:33N 31°59' W 117°29'1212.4
2016-Aug-13 02:33N 31°47' W 117°24'1512.0
2016-Aug-13 01:20N 31°33' W 117°18'3712.3
2016-Aug-12 22:19N 30°58' W 117°04'  

Dump ship's entire track history